sensor_id;sensor_type;location;lat;lon;timestamp;temperature;humidity
10868;DHT22;62667;48.698;8.762;2022-10-17T00:00:49;13.90;96.30
10868;DHT22;62667;48.698;8.762;2022-10-17T00:03:17;13.80;95.90
10868;DHT22;62667;48.698;8.762;2022-10-17T00:05:45;13.70;95.80
10868;DHT22;62667;48.698;8.762;2022-10-17T00:08:15;13.70;95.60
10868;DHT22;62667;48.698;8.762;2022-10-17T00:10:45;13.60;95.80
10868;DHT22;62667;48.698;8.762;2022-10-17T00:13:21;13.70;96.00
10868;DHT22;62667;48.698;8.762;2022-10-17T00:15:47;13.70;96.10
10868;DHT22;62667;48.698;8.762;2022-10-17T00:18:14;13.60;96.40
10868;DHT22;62667;48.698;8.762;2022-10-17T00:20:40;13.70;96.70
10868;DHT22;62667;48.698;8.762;2022-10-17T00:23:07;13.80;96.50
10868;DHT22;62667;48.698;8.762;2022-10-17T00:25:34;13.70;96.40
10868;DHT22;62667;48.698;8.762;2022-10-17T00:28:01;13.70;95.80
10868;DHT22;62667;48.698;8.762;2022-10-17T00:30:28;13.70;95.80
10868;DHT22;62667;48.698;8.762;2022-10-17T00:32:57;13.60;95.30
10868;DHT22;62667;48.698;8.762;2022-10-17T00:35:23;13.60;95.20
10868;DHT22;62667;48.698;8.762;2022-10-17T00:37:50;13.60;95.50
10868;DHT22;62667;48.698;8.762;2022-10-17T00:40:17;13.60;95.90
10868;DHT22;62667;48.698;8.762;2022-10-17T00:42:44;13.60;96.00
10868;DHT22;62667;48.698;8.762;2022-10-17T00:45:18;13.60;97.10
10868;DHT22;62667;48.698;8.762;2022-10-17T00:47:49;13.60;96.50
10868;DHT22;62667;48.698;8.762;2022-10-17T00:50:19;13.40;95.30
10868;DHT22;62667;48.698;8.762;2022-10-17T00:52:47;13.30;96.00
10868;DHT22;62667;48.698;8.762;2022-10-17T00:55:17;13.20;96.10
10868;DHT22;62667;48.698;8.762;2022-10-17T00:57:48;13.20;96.30
10868;DHT22;62667;48.698;8.762;2022-10-17T01:00:17;13.00;96.20
10868;DHT22;62667;48.698;8.762;2022-10-17T01:02:44;13.00;96.90
10868;DHT22;62667;48.698;8.762;2022-10-17T01:05:12;13.00;97.00
10868;DHT22;62667;48.698;8.762;2022-10-17T01:07:40;13.00;97.20
10868;DHT22;62667;48.698;8.762;2022-10-17T01:10:11;13.00;96.80
10868;DHT22;62667;48.698;8.762;2022-10-17T01:12:49;12.80;96.80
10868;DHT22;62667;48.698;8.762;2022-10-17T01:15:33;12.70;97.90
10868;DHT22;62667;48.698;8.762;2022-10-17T01:18:14;12.70;98.30
10868;DHT22;62667;48.698;8.762;2022-10-17T01:24:47;12.90;98.20
10868;DHT22;62667;48.698;8.762;2022-10-17T01:27:56;12.80;98.30
10868;DHT22;62667;48.698;8.762;2022-10-17T01:30:55;12.60;98.00
10868;DHT22;62667;48.698;8.762;2022-10-17T01:33:46;12.60;98.50
10868;DHT22;62667;48.698;8.762;2022-10-17T01:36:26;12.50;98.30
10868;DHT22;62667;48.698;8.762;2022-10-17T01:39:09;12.50;98.20
10868;DHT22;62667;48.698;8.762;2022-10-17T01:41:42;12.40;99.00
10868;DHT22;62667;48.698;8.762;2022-10-17T01:44:19;12.40;99.00
10868;DHT22;62667;48.698;8.762;2022-10-17T01:46:56;12.30;98.90
10868;DHT22;62667;48.698;8.762;2022-10-17T01:49:28;12.30;99.10
10868;DHT22;62667;48.698;8.762;2022-10-17T01:52:02;12.20;99.30
10868;DHT22;62667;48.698;8.762;2022-10-17T01:54:38;12.20;99.60
10868;DHT22;62667;48.698;8.762;2022-10-17T01:57:10;12.10;99.90
10868;DHT22;62667;48.698;8.762;2022-10-17T01:59:46;12.10;99.90
10868;DHT22;62667;48.698;8.762;2022-10-17T02:02:17;12.00;99.90
10868;DHT22;62667;48.698;8.762;2022-10-17T02:04:46;11.90;99.90
10868;DHT22;62667;48.698;8.762;2022-10-17T02:07:14;11.90;99.90
10868;DHT22;62667;48.698;8.762;2022-10-17T02:09:41;11.90;99.90
10868;DHT22;62667;48.698;8.762;2022-10-17T02:12:34;12.00;99.90
10868;DHT22;62667;48.698;8.762;2022-10-17T02:15:24;11.90;99.90
10868;DHT22;62667;48.698;8.762;2022-10-17T02:18:15;11.90;99.90
10868;DHT22;62667;48.698;8.762;2022-10-17T02:20:56;11.80;99.90
10868;DHT22;62667;48.698;8.762;2022-10-17T02:23:35;11.80;99.90
10868;DHT22;62667;48.698;8.762;2022-10-17T02:26:10;11.80;99.90
10868;DHT22;62667;48.698;8.762;2022-10-17T02:28:47;11.80;99.90
10868;DHT22;62667;48.698;8.762;2022-10-17T02:31:22;11.80;99.90
10868;DHT22;62667;48.698;8.762;2022-10-17T02:33:57;11.80;99.90
10868;DHT22;62667;48.698;8.762;2022-10-17T02:36:31;11.80;99.90
10868;DHT22;62667;48.698;8.762;2022-10-17T02:39:02;11.80;99.90
10868;DHT22;62667;48.698;8.762;2022-10-17T02:41:31;11.80;99.90
10868;DHT22;62667;48.698;8.762;2022-10-17T02:44:00;11.70;99.80
10868;DHT22;62667;48.698;8.762;2022-10-17T02:46:29;11.70;99.50
10868;DHT22;62667;48.698;8.762;2022-10-17T02:49:01;11.70;99.80
10868;DHT22;62667;48.698;8.762;2022-10-17T02:51:40;11.60;99.70
10868;DHT22;62667;48.698;8.762;2022-10-17T02:54:13;11.60;99.60
10868;DHT22;62667;48.698;8.762;2022-10-17T02:56:47;11.60;99.60
10868;DHT22;62667;48.698;8.762;2022-10-17T02:59:20;11.60;99.30
10868;DHT22;62667;48.698;8.762;2022-10-17T03:01:49;11.50;98.20
10868;DHT22;62667;48.698;8.762;2022-10-17T03:04:17;11.50;98.70
10868;DHT22;62667;48.698;8.762;2022-10-17T03:06:45;11.50;99.20
10868;DHT22;62667;48.698;8.762;2022-10-17T03:09:13;11.50;98.80
10868;DHT22;62667;48.698;8.762;2022-10-17T03:11:41;11.60;98.60
10868;DHT22;62667;48.698;8.762;2022-10-17T03:14:08;11.50;98.10
10868;DHT22;62667;48.698;8.762;2022-10-17T03:16:34;11.40;98.50
10868;DHT22;62667;48.698;8.762;2022-10-17T03:19:01;11.30;98.70
10868;DHT22;62667;48.698;8.762;2022-10-17T03:21:28;11.30;99.30
10868;DHT22;62667;48.698;8.762;2022-10-17T03:23:54;11.30;99.40
10868;DHT22;62667;48.698;8.762;2022-10-17T03:26:21;11.30;99.30
10868;DHT22;62667;48.698;8.762;2022-10-17T03:28:47;11.30;99.10
10868;DHT22;62667;48.698;8.762;2022-10-17T03:31:15;11.30;99.30
10868;DHT22;62667;48.698;8.762;2022-10-17T03:33:42;11.20;99.40
10868;DHT22;62667;48.698;8.762;2022-10-17T03:36:11;11.30;99.20
10868;DHT22;62667;48.698;8.762;2022-10-17T03:38:41;11.30;98.80
10868;DHT22;62667;48.698;8.762;2022-10-17T03:41:10;11.30;98.20
10868;DHT22;62667;48.698;8.762;2022-10-17T03:43:37;11.20;98.20
10868;DHT22;62667;48.698;8.762;2022-10-17T03:46:06;11.20;98.30
10868;DHT22;62667;48.698;8.762;2022-10-17T03:48:33;11.20;97.80
10868;DHT22;62667;48.698;8.762;2022-10-17T03:51:00;11.10;98.10
10868;DHT22;62667;48.698;8.762;2022-10-17T03:53:29;11.10;98.30
10868;DHT22;62667;48.698;8.762;2022-10-17T03:56:09;11.10;98.00
10868;DHT22;62667;48.698;8.762;2022-10-17T03:58:36;11.10;97.70
10868;DHT22;62667;48.698;8.762;2022-10-17T04:01:03;11.00;97.70
10868;DHT22;62667;48.698;8.762;2022-10-17T04:03:30;11.10;98.00
10868;DHT22;62667;48.698;8.762;2022-10-17T04:05:57;11.10;98.10
10868;DHT22;62667;48.698;8.762;2022-10-17T04:08:24;11.20;97.90
10868;DHT22;62667;48.698;8.762;2022-10-17T04:10:51;11.10;97.90
10868;DHT22;62667;48.698;8.762;2022-10-17T04:13:18;11.10;97.40
10868;DHT22;62667;48.698;8.762;2022-10-17T04:15:53;11.10;97.50
10868;DHT22;62667;48.698;8.762;2022-10-17T04:18:20;11.00;97.60
10868;DHT22;62667;48.698;8.762;2022-10-17T04:20:46;11.00;97.00
10868;DHT22;62667;48.698;8.762;2022-10-17T04:23:13;11.00;97.30
10868;DHT22;62667;48.698;8.762;2022-10-17T04:25:39;11.00;97.50
10868;DHT22;62667;48.698;8.762;2022-10-17T04:28:06;11.00;96.70
10868;DHT22;62667;48.698;8.762;2022-10-17T04:30:33;10.90;98.00
10868;DHT22;62667;48.698;8.762;2022-10-17T04:32:59;11.00;98.00
10868;DHT22;62667;48.698;8.762;2022-10-17T04:35:28;10.90;98.00
10868;DHT22;62667;48.698;8.762;2022-10-17T04:37:54;11.00;98.20
10868;DHT22;62667;48.698;8.762;2022-10-17T04:40:23;11.00;98.20
10868;DHT22;62667;48.698;8.762;2022-10-17T04:42:52;11.00;98.50
10868;DHT22;62667;48.698;8.762;2022-10-17T04:45:18;11.10;99.60
10868;DHT22;62667;48.698;8.762;2022-10-17T04:47:45;11.30;99.90
10868;DHT22;62667;48.698;8.762;2022-10-17T04:50:12;11.20;99.40
10868;DHT22;62667;48.698;8.762;2022-10-17T04:52:38;11.30;99.60
10868;DHT22;62667;48.698;8.762;2022-10-17T04:55:05;11.30;99.10
10868;DHT22;62667;48.698;8.762;2022-10-17T04:57:33;11.40;98.80
10868;DHT22;62667;48.698;8.762;2022-10-17T05:00:00;11.40;97.40
10868;DHT22;62667;48.698;8.762;2022-10-17T05:02:29;11.30;96.70
10868;DHT22;62667;48.698;8.762;2022-10-17T05:04:56;11.30;96.10
10868;DHT22;62667;48.698;8.762;2022-10-17T05:07:25;11.20;95.60
10868;DHT22;62667;48.698;8.762;2022-10-17T05:09:51;11.10;95.00
10868;DHT22;62667;48.698;8.762;2022-10-17T05:12:18;11.00;95.30
10868;DHT22;62667;48.698;8.762;2022-10-17T05:14:44;11.00;95.10
10868;DHT22;62667;48.698;8.762;2022-10-17T05:17:10;11.00;95.80
10868;DHT22;62667;48.698;8.762;2022-10-17T05:19:37;11.00;95.60
10868;DHT22;62667;48.698;8.762;2022-10-17T05:22:04;10.90;95.50
10868;DHT22;62667;48.698;8.762;2022-10-17T05:24:30;10.90;95.40
10868;DHT22;62667;48.698;8.762;2022-10-17T05:26:57;10.70;94.70
10868;DHT22;62667;48.698;8.762;2022-10-17T05:29:23;10.60;96.30
10868;DHT22;62667;48.698;8.762;2022-10-17T05:31:49;10.70;97.10
10868;DHT22;62667;48.698;8.762;2022-10-17T05:34:16;10.70;96.80
10868;DHT22;62667;48.698;8.762;2022-10-17T05:36:42;10.50;96.60
10868;DHT22;62667;48.698;8.762;2022-10-17T05:39:10;10.50;98.10
10868;DHT22;62667;48.698;8.762;2022-10-17T05:41:38;10.50;98.60
10868;DHT22;62667;48.698;8.762;2022-10-17T05:44:04;10.50;98.70
10868;DHT22;62667;48.698;8.762;2022-10-17T05:46:31;10.60;99.40
10868;DHT22;62667;48.698;8.762;2022-10-17T05:48:57;10.60;98.40
10868;DHT22;62667;48.698;8.762;2022-10-17T05:51:23;10.60;98.00
10868;DHT22;62667;48.698;8.762;2022-10-17T05:53:50;10.60;97.80
10868;DHT22;62667;48.698;8.762;2022-10-17T05:56:19;10.50;97.80
10868;DHT22;62667;48.698;8.762;2022-10-17T05:58:46;10.60;98.00
10868;DHT22;62667;48.698;8.762;2022-10-17T06:01:13;10.70;98.10
10868;DHT22;62667;48.698;8.762;2022-10-17T06:03:40;10.70;98.10
10868;DHT22;62667;48.698;8.762;2022-10-17T06:06:08;10.70;98.30
10868;DHT22;62667;48.698;8.762;2022-10-17T06:08:36;10.80;98.50
10868;DHT22;62667;48.698;8.762;2022-10-17T06:11:03;10.80;98.60
10868;DHT22;62667;48.698;8.762;2022-10-17T06:13:30;10.90;98.90
10868;DHT22;62667;48.698;8.762;2022-10-17T06:15:57;11.00;99.10
10868;DHT22;62667;48.698;8.762;2022-10-17T06:18:23;11.10;98.50
10868;DHT22;62667;48.698;8.762;2022-10-17T06:20:51;11.10;98.30
10868;DHT22;62667;48.698;8.762;2022-10-17T06:23:18;11.20;97.40
10868;DHT22;62667;48.698;8.762;2022-10-17T06:25:46;11.10;96.70
10868;DHT22;62667;48.698;8.762;2022-10-17T06:28:13;10.90;95.60
10868;DHT22;62667;48.698;8.762;2022-10-17T06:30:42;10.80;96.30
10868;DHT22;62667;48.698;8.762;2022-10-17T06:33:09;10.80;96.50
10868;DHT22;62667;48.698;8.762;2022-10-17T06:35:36;10.90;96.50
10868;DHT22;62667;48.698;8.762;2022-10-17T06:38:05;11.00;96.50
10868;DHT22;62667;48.698;8.762;2022-10-17T06:40:31;11.00;96.40
10868;DHT22;62667;48.698;8.762;2022-10-17T06:42:57;11.10;96.10
10868;DHT22;62667;48.698;8.762;2022-10-17T06:45:24;11.20;95.20
10868;DHT22;62667;48.698;8.762;2022-10-17T06:47:51;11.20;95.60
10868;DHT22;62667;48.698;8.762;2022-10-17T06:50:17;11.30;95.10
10868;DHT22;62667;48.698;8.762;2022-10-17T06:52:44;11.20;95.00
10868;DHT22;62667;48.698;8.762;2022-10-17T06:55:10;11.30;96.10
10868;DHT22;62667;48.698;8.762;2022-10-17T06:57:37;11.40;94.80
10868;DHT22;62667;48.698;8.762;2022-10-17T07:00:04;11.40;95.00
10868;DHT22;62667;48.698;8.762;2022-10-17T07:05:01;11.50;94.10
10868;DHT22;62667;48.698;8.762;2022-10-17T07:07:29;11.60;95.30
10868;DHT22;62667;48.698;8.762;2022-10-17T07:09:56;11.70;95.20
10868;DHT22;62667;48.698;8.762;2022-10-17T07:12:23;11.90;95.30
10868;DHT22;62667;48.698;8.762;2022-10-17T07:14:50;11.90;95.20
10868;DHT22;62667;48.698;8.762;2022-10-17T07:17:16;12.00;96.10
10868;DHT22;62667;48.698;8.762;2022-10-17T07:19:43;12.10;95.90
10868;DHT22;62667;48.698;8.762;2022-10-17T07:22:11;12.20;96.70
10868;DHT22;62667;48.698;8.762;2022-10-17T07:24:37;12.40;96.10
10868;DHT22;62667;48.698;8.762;2022-10-17T07:27:04;12.50;96.30
10868;DHT22;62667;48.698;8.762;2022-10-17T07:29:30;12.60;96.00
10868;DHT22;62667;48.698;8.762;2022-10-17T07:31:57;12.80;95.20
10868;DHT22;62667;48.698;8.762;2022-10-17T07:34:24;12.90;95.20
10868;DHT22;62667;48.698;8.762;2022-10-17T07:36:52;13.00;95.40
10868;DHT22;62667;48.698;8.762;2022-10-17T07:39:19;13.10;95.50
10868;DHT22;62667;48.698;8.762;2022-10-17T07:44:13;13.20;95.00
10868;DHT22;62667;48.698;8.762;2022-10-17T07:46:40;13.30;95.90
10868;DHT22;62667;48.698;8.762;2022-10-17T07:49:06;13.30;95.60
10868;DHT22;62667;48.698;8.762;2022-10-17T07:51:33;13.50;95.70
10868;DHT22;62667;48.698;8.762;2022-10-17T07:53:59;13.50;95.50
10868;DHT22;62667;48.698;8.762;2022-10-17T07:56:28;13.60;95.70
10868;DHT22;62667;48.698;8.762;2022-10-17T07:58:56;13.80;95.60
10868;DHT22;62667;48.698;8.762;2022-10-17T08:01:22;13.80;95.70
10868;DHT22;62667;48.698;8.762;2022-10-17T08:03:50;13.90;96.40
10868;DHT22;62667;48.698;8.762;2022-10-17T08:06:17;14.00;95.80
10868;DHT22;62667;48.698;8.762;2022-10-17T08:08:43;14.10;96.00
10868;DHT22;62667;48.698;8.762;2022-10-17T08:11:12;14.20;95.60
10868;DHT22;62667;48.698;8.762;2022-10-17T08:13:40;14.30;95.40
10868;DHT22;62667;48.698;8.762;2022-10-17T08:16:09;14.40;94.50
10868;DHT22;62667;48.698;8.762;2022-10-17T08:18:38;14.50;95.10
10868;DHT22;62667;48.698;8.762;2022-10-17T08:21:06;14.70;93.90
10868;DHT22;62667;48.698;8.762;2022-10-17T08:23:33;14.80;94.20
10868;DHT22;62667;48.698;8.762;2022-10-17T08:26:02;14.90;94.30
10868;DHT22;62667;48.698;8.762;2022-10-17T08:28:29;15.10;94.40
10868;DHT22;62667;48.698;8.762;2022-10-17T08:31:03;15.30;93.90
10868;DHT22;62667;48.698;8.762;2022-10-17T08:33:30;15.40;93.50
10868;DHT22;62667;48.698;8.762;2022-10-17T08:35:58;15.70;92.70
10868;DHT22;62667;48.698;8.762;2022-10-17T08:38:24;16.00;90.10
10868;DHT22;62667;48.698;8.762;2022-10-17T08:40:51;16.10;89.70
10868;DHT22;62667;48.698;8.762;2022-10-17T08:43:27;16.30;90.20
10868;DHT22;62667;48.698;8.762;2022-10-17T08:46:04;16.40;88.50
10868;DHT22;62667;48.698;8.762;2022-10-17T08:48:36;16.60;87.20
10868;DHT22;62667;48.698;8.762;2022-10-17T08:51:09;16.70;87.00
10868;DHT22;62667;48.698;8.762;2022-10-17T08:53:42;16.80;87.50
10868;DHT22;62667;48.698;8.762;2022-10-17T08:56:18;17.00;87.10
10868;DHT22;62667;48.698;8.762;2022-10-17T08:58:48;17.00;85.90
10868;DHT22;62667;48.698;8.762;2022-10-17T09:01:28;17.00;84.40
10868;DHT22;62667;48.698;8.762;2022-10-17T09:07:18;17.20;84.20
10868;DHT22;62667;48.698;8.762;2022-10-17T09:09:58;17.50;82.40
10868;DHT22;62667;48.698;8.762;2022-10-17T09:12:39;17.60;81.70
10868;DHT22;62667;48.698;8.762;2022-10-17T09:15:28;17.70;83.30
10868;DHT22;62667;48.698;8.762;2022-10-17T09:18:06;17.70;82.60
10868;DHT22;62667;48.698;8.762;2022-10-17T09:20:39;17.80;81.10
10868;DHT22;62667;48.698;8.762;2022-10-17T09:23:12;18.00;81.30
10868;DHT22;62667;48.698;8.762;2022-10-17T09:25:44;18.10;80.60
10868;DHT22;62667;48.698;8.762;2022-10-17T09:28:16;18.20;79.90
10868;DHT22;62667;48.698;8.762;2022-10-17T09:30:49;18.30;80.60
10868;DHT22;62667;48.698;8.762;2022-10-17T09:33:24;18.50;79.40
10868;DHT22;62667;48.698;8.762;2022-10-17T09:35:53;18.50;79.00
10868;DHT22;62667;48.698;8.762;2022-10-17T09:38:24;18.60;79.00
10868;DHT22;62667;48.698;8.762;2022-10-17T09:40:55;18.80;76.30
10868;DHT22;62667;48.698;8.762;2022-10-17T09:43:23;18.80;77.20
10868;DHT22;62667;48.698;8.762;2022-10-17T09:46:00;18.70;75.90
10868;DHT22;62667;48.698;8.762;2022-10-17T09:48:35;18.70;76.50
10868;DHT22;62667;48.698;8.762;2022-10-17T09:51:05;18.90;75.90
10868;DHT22;62667;48.698;8.762;2022-10-17T09:53:35;18.90;76.70
10868;DHT22;62667;48.698;8.762;2022-10-17T09:56:09;19.00;74.20
10868;DHT22;62667;48.698;8.762;2022-10-17T09:58:43;19.10;75.50
10868;DHT22;62667;48.698;8.762;2022-10-17T10:01:17;19.60;73.30
10868;DHT22;62667;48.698;8.762;2022-10-17T10:08:51;20.00;68.90
10868;DHT22;62667;48.698;8.762;2022-10-17T10:11:23;20.20;69.00
10868;DHT22;62667;48.698;8.762;2022-10-17T10:13:51;20.30;68.40
10868;DHT22;62667;48.698;8.762;2022-10-17T10:16:21;20.50;67.20
10868;DHT22;62667;48.698;8.762;2022-10-17T10:18:51;20.60;64.90
10868;DHT22;62667;48.698;8.762;2022-10-17T10:21:19;20.70;63.60
10868;DHT22;62667;48.698;8.762;2022-10-17T10:24:09;20.90;63.90
10868;DHT22;62667;48.698;8.762;2022-10-17T10:26:39;21.00;62.60
10868;DHT22;62667;48.698;8.762;2022-10-17T10:29:21;21.20;61.70
10868;DHT22;62667;48.698;8.762;2022-10-17T10:31:52;21.30;60.50
10868;DHT22;62667;48.698;8.762;2022-10-17T10:34:23;21.40;62.30
10868;DHT22;62667;48.698;8.762;2022-10-17T10:36:58;21.60;61.30
10868;DHT22;62667;48.698;8.762;2022-10-17T10:39:35;21.60;59.60
10868;DHT22;62667;48.698;8.762;2022-10-17T10:42:16;21.80;58.10
10868;DHT22;62667;48.698;8.762;2022-10-17T10:44:47;21.90;57.00
10868;DHT22;62667;48.698;8.762;2022-10-17T10:47:21;22.10;55.50
10868;DHT22;62667;48.698;8.762;2022-10-17T10:49:52;22.30;53.30
10868;DHT22;62667;48.698;8.762;2022-10-17T10:52:40;22.40;51.70
10868;DHT22;62667;48.698;8.762;2022-10-17T10:55:19;22.60;50.50
10868;DHT22;62667;48.698;8.762;2022-10-17T10:57:55;22.70;49.90
10868;DHT22;62667;48.698;8.762;2022-10-17T11:00:33;22.80;49.70
10868;DHT22;62667;48.698;8.762;2022-10-17T11:03:09;23.00;49.50
10868;DHT22;62667;48.698;8.762;2022-10-17T11:05:43;23.10;46.90
10868;DHT22;62667;48.698;8.762;2022-10-17T11:08:21;23.30;46.00
10868;DHT22;62667;48.698;8.762;2022-10-17T11:11:06;23.50;45.80
10868;DHT22;62667;48.698;8.762;2022-10-17T11:13:46;23.50;44.80
10868;DHT22;62667;48.698;8.762;2022-10-17T11:16:27;23.80;44.50
10868;DHT22;62667;48.698;8.762;2022-10-17T11:19:06;23.70;41.00
10868;DHT22;62667;48.698;8.762;2022-10-17T11:21:46;23.70;39.30
10868;DHT22;62667;48.698;8.762;2022-10-17T11:24:18;23.70;41.40
10868;DHT22;62667;48.698;8.762;2022-10-17T11:26:53;23.70;40.30
10868;DHT22;62667;48.698;8.762;2022-10-17T11:29:28;23.80;41.10
10868;DHT22;62667;48.698;8.762;2022-10-17T11:31:59;24.00;38.40
10868;DHT22;62667;48.698;8.762;2022-10-17T11:34:31;24.00;39.70
10868;DHT22;62667;48.698;8.762;2022-10-17T11:37:06;23.90;39.10
10868;DHT22;62667;48.698;8.762;2022-10-17T11:39:42;24.10;38.70
10868;DHT22;62667;48.698;8.762;2022-10-17T11:42:19;24.20;39.20
10868;DHT22;62667;48.698;8.762;2022-10-17T11:47:34;24.50;37.30
10868;DHT22;62667;48.698;8.762;2022-10-17T11:50:11;24.90;37.20
10868;DHT22;62667;48.698;8.762;2022-10-17T11:52:46;24.80;37.40
10868;DHT22;62667;48.698;8.762;2022-10-17T11:55:19;24.80;71.70
10868;DHT22;62667;48.698;8.762;2022-10-17T11:58:08;24.80;54.80
10868;DHT22;62667;48.698;8.762;2022-10-17T12:00:53;24.80;34.00
10868;DHT22;62667;48.698;8.762;2022-10-17T12:03:53;25.20;33.60
10868;DHT22;62667;48.698;8.762;2022-10-17T12:06:38;25.40;31.70
10868;DHT22;62667;48.698;8.762;2022-10-17T12:09:25;25.40;31.90
10868;DHT22;62667;48.698;8.762;2022-10-17T12:12:01;25.50;31.30
10868;DHT22;62667;48.698;8.762;2022-10-17T12:14:40;25.60;31.00
10868;DHT22;62667;48.698;8.762;2022-10-17T12:17:30;25.80;29.20
10868;DHT22;62667;48.698;8.762;2022-10-17T12:20:28;25.40;30.00
10868;DHT22;62667;48.698;8.762;2022-10-17T12:23:04;25.60;29.70
10868;DHT22;62667;48.698;8.762;2022-10-17T12:25:49;25.70;30.40
10868;DHT22;62667;48.698;8.762;2022-10-17T12:28:23;26.10;29.80
10868;DHT22;62667;48.698;8.762;2022-10-17T12:33:33;25.70;28.50
10868;DHT22;62667;48.698;8.762;2022-10-17T12:42:45;26.50;28.50
10868;DHT22;62667;48.698;8.762;2022-10-17T12:45:44;26.70;27.50
10868;DHT22;62667;48.698;8.762;2022-10-17T12:52:13;27.30;28.90
10868;DHT22;62667;48.698;8.762;2022-10-17T12:54:56;27.60;26.40
10868;DHT22;62667;48.698;8.762;2022-10-17T12:57:32;27.60;26.60
10868;DHT22;62667;48.698;8.762;2022-10-17T13:00:11;27.70;25.00
10868;DHT22;62667;48.698;8.762;2022-10-17T13:02:41;28.10;25.90
10868;DHT22;62667;48.698;8.762;2022-10-17T13:05:13;28.30;25.20
10868;DHT22;62667;48.698;8.762;2022-10-17T13:07:47;28.30;24.10
10868;DHT22;62667;48.698;8.762;2022-10-17T13:10:23;28.70;23.50
10868;DHT22;62667;48.698;8.762;2022-10-17T13:15:30;29.80;22.00
10868;DHT22;62667;48.698;8.762;2022-10-17T13:18:00;29.90;21.70
10868;DHT22;62667;48.698;8.762;2022-10-17T13:20:30;29.50;22.30
10868;DHT22;62667;48.698;8.762;2022-10-17T13:22:59;29.10;24.00
10868;DHT22;62667;48.698;8.762;2022-10-17T13:28:10;30.20;21.60
10868;DHT22;62667;48.698;8.762;2022-10-17T13:30:39;31.20;20.50
10868;DHT22;62667;48.698;8.762;2022-10-17T13:33:29;31.20;20.60
10868;DHT22;62667;48.698;8.762;2022-10-17T13:36:00;30.40;20.40
10868;DHT22;62667;48.698;8.762;2022-10-17T13:38:30;30.10;20.40
10868;DHT22;62667;48.698;8.762;2022-10-17T13:41:02;31.40;20.50
10868;DHT22;62667;48.698;8.762;2022-10-17T13:43:30;32.60;19.10
10868;DHT22;62667;48.698;8.762;2022-10-17T13:46:00;33.00;19.70
10868;DHT22;62667;48.698;8.762;2022-10-17T13:48:31;32.50;17.80
10868;DHT22;62667;48.698;8.762;2022-10-17T13:56:01;35.40;14.80
10868;DHT22;62667;48.698;8.762;2022-10-17T13:58:31;35.00;15.00
10868;DHT22;62667;48.698;8.762;2022-10-17T14:01:05;36.40;14.50
10868;DHT22;62667;48.698;8.762;2022-10-17T14:03:32;35.60;15.00
10868;DHT22;62667;48.698;8.762;2022-10-17T14:06:10;34.90;15.90
10868;DHT22;62667;48.698;8.762;2022-10-17T14:08:52;35.20;15.70
10868;DHT22;62667;48.698;8.762;2022-10-17T14:11:27;35.10;15.40
10868;DHT22;62667;48.698;8.762;2022-10-17T14:13:59;35.10;15.90
10868;DHT22;62667;48.698;8.762;2022-10-17T14:16:34;34.40;15.40
10868;DHT22;62667;48.698;8.762;2022-10-17T14:19:04;34.50;16.00
10868;DHT22;62667;48.698;8.762;2022-10-17T14:21:32;34.40;15.80
10868;DHT22;62667;48.698;8.762;2022-10-17T14:24:25;33.70;16.00
10868;DHT22;62667;48.698;8.762;2022-10-17T14:26:56;34.10;15.70
10868;DHT22;62667;48.698;8.762;2022-10-17T14:29:26;33.80;15.80
10868;DHT22;62667;48.698;8.762;2022-10-17T14:31:59;34.90;15.00
10868;DHT22;62667;48.698;8.762;2022-10-17T14:36:59;34.90;14.00
10868;DHT22;62667;48.698;8.762;2022-10-17T14:39:27;36.40;14.20
10868;DHT22;62667;48.698;8.762;2022-10-17T14:41:54;35.50;14.40
10868;DHT22;62667;48.698;8.762;2022-10-17T14:44:25;34.90;14.70
10868;DHT22;62667;48.698;8.762;2022-10-17T14:46:56;35.10;15.40
10868;DHT22;62667;48.698;8.762;2022-10-17T14:49:33;37.00;14.10
10868;DHT22;62667;48.698;8.762;2022-10-17T14:52:19;37.40;13.00
10868;DHT22;62667;48.698;8.762;2022-10-17T14:54:51;38.10;12.60
10868;DHT22;62667;48.698;8.762;2022-10-17T14:57:22;37.60;12.90
10868;DHT22;62667;48.698;8.762;2022-10-17T14:59:52;37.20;12.70
10868;DHT22;62667;48.698;8.762;2022-10-17T15:02:20;36.70;13.00
10868;DHT22;62667;48.698;8.762;2022-10-17T15:04:46;37.00;12.90
10868;DHT22;62667;48.698;8.762;2022-10-17T15:07:14;36.20;13.50
10868;DHT22;62667;48.698;8.762;2022-10-17T15:09:42;38.00;12.90
10868;DHT22;62667;48.698;8.762;2022-10-17T15:12:13;37.30;13.70
10868;DHT22;62667;48.698;8.762;2022-10-17T15:14:41;38.10;12.20
10868;DHT22;62667;48.698;8.762;2022-10-17T15:17:14;38.30;13.60
10868;DHT22;62667;48.698;8.762;2022-10-17T15:19:43;38.20;13.20
10868;DHT22;62667;48.698;8.762;2022-10-17T15:22:09;37.80;13.00
10868;DHT22;62667;48.698;8.762;2022-10-17T15:24:36;36.70;14.50
10868;DHT22;62667;48.698;8.762;2022-10-17T15:27:08;36.00;14.70
10868;DHT22;62667;48.698;8.762;2022-10-17T15:29:39;35.70;15.60
10868;DHT22;62667;48.698;8.762;2022-10-17T15:32:06;34.60;16.70
10868;DHT22;62667;48.698;8.762;2022-10-17T15:34:33;34.00;17.90
10868;DHT22;62667;48.698;8.762;2022-10-17T15:36:59;34.70;17.90
10868;DHT22;62667;48.698;8.762;2022-10-17T15:39:26;35.90;16.60
10868;DHT22;62667;48.698;8.762;2022-10-17T15:41:52;36.00;16.30
10868;DHT22;62667;48.698;8.762;2022-10-17T15:44:19;34.90;17.20
10868;DHT22;62667;48.698;8.762;2022-10-17T15:46:48;34.90;17.20
10868;DHT22;62667;48.698;8.762;2022-10-17T15:49:17;34.90;17.80
10868;DHT22;62667;48.698;8.762;2022-10-17T15:51:47;33.80;17.80
10868;DHT22;62667;48.698;8.762;2022-10-17T15:54:13;33.90;18.20
10868;DHT22;62667;48.698;8.762;2022-10-17T15:56:41;33.60;19.30
10868;DHT22;62667;48.698;8.762;2022-10-17T15:59:12;32.80;19.50
10868;DHT22;62667;48.698;8.762;2022-10-17T16:04:09;31.40;21.20
10868;DHT22;62667;48.698;8.762;2022-10-17T16:06:39;30.70;23.20
10868;DHT22;62667;48.698;8.762;2022-10-17T16:09:07;29.60;25.40
10868;DHT22;62667;48.698;8.762;2022-10-17T16:11:36;28.60;27.60
10868;DHT22;62667;48.698;8.762;2022-10-17T16:14:06;27.90;29.20
10868;DHT22;62667;48.698;8.762;2022-10-17T16:16:35;27.20;31.30
10868;DHT22;62667;48.698;8.762;2022-10-17T16:21:31;25.70;34.40
10868;DHT22;62667;48.698;8.762;2022-10-17T16:23:59;25.20;36.50
10868;DHT22;62667;48.698;8.762;2022-10-17T16:26:30;24.80;37.80
10868;DHT22;62667;48.698;8.762;2022-10-17T16:28:59;24.30;39.00
10868;DHT22;62667;48.698;8.762;2022-10-17T16:31:30;24.00;41.20
10868;DHT22;62667;48.698;8.762;2022-10-17T16:34:00;23.70;41.50
10868;DHT22;62667;48.698;8.762;2022-10-17T16:38:56;23.00;44.60
10868;DHT22;62667;48.698;8.762;2022-10-17T16:41:24;22.80;45.80
10868;DHT22;62667;48.698;8.762;2022-10-17T16:43:55;22.50;46.40
10868;DHT22;62667;48.698;8.762;2022-10-17T16:46:24;22.30;47.70
10868;DHT22;62667;48.698;8.762;2022-10-17T16:48:52;22.00;48.70